sensor_id;sensor_type;location;lat;lon;timestamp;P1;durP1;ratioP1;P2;durP2;ratioP2
27899;SDS011;15243;50.726;7.080;2022-09-21T00:01:15;12.30;;;4.60;;
27899;SDS011;15243;50.726;7.080;2022-09-21T00:03:50;15.40;;;5.05;;
27899;SDS011;15243;50.726;7.080;2022-09-21T00:06:22;16.45;;;5.10;;
27899;SDS011;15243;50.726;7.080;2022-09-21T00:08:50;11.25;;;5.57;;
27899;SDS011;15243;50.726;7.080;2022-09-21T00:11:22;11.82;;;5.25;;
27899;SDS011;15243;50.726;7.080;2022-09-21T00:13:54;11.15;;;4.72;;
27899;SDS011;15243;50.726;7.080;2022-09-21T00:16:22;9.10;;;5.63;;
27899;SDS011;15243;50.726;7.080;2022-09-21T00:18:49;12.32;;;5.28;;
27899;SDS011;15243;50.726;7.080;2022-09-21T00:21:16;12.95;;;4.50;;
27899;SDS011;15243;50.726;7.080;2022-09-21T00:23:43;13.27;;;4.93;;
27899;SDS011;15243;50.726;7.080;2022-09-21T00:26:12;13.90;;;4.55;;
27899;SDS011;15243;50.726;7.080;2022-09-21T00:28:41;12.55;;;5.65;;
27899;SDS011;15243;50.726;7.080;2022-09-21T00:31:10;10.05;;;4.80;;
27899;SDS011;15243;50.726;7.080;2022-09-21T00:33:40;12.82;;;4.47;;
27899;SDS011;15243;50.726;7.080;2022-09-21T00:36:10;13.65;;;5.13;;
27899;SDS011;15243;50.726;7.080;2022-09-21T00:38:39;12.10;;;4.97;;
27899;SDS011;15243;50.726;7.080;2022-09-21T00:41:07;6.93;;;4.65;;
27899;SDS011;15243;50.726;7.080;2022-09-21T00:43:36;18.10;;;4.95;;
27899;SDS011;15243;50.726;7.080;2022-09-21T00:46:09;7.72;;;4.22;;
27899;SDS011;15243;50.726;7.080;2022-09-21T00:48:43;9.57;;;4.30;;
27899;SDS011;15243;50.726;7.080;2022-09-21T00:51:11;11.52;;;4.82;;
27899;SDS011;15243;50.726;7.080;2022-09-21T00:53:38;10.25;;;4.35;;
27899;SDS011;15243;50.726;7.080;2022-09-21T00:56:05;10.43;;;4.75;;
27899;SDS011;15243;50.726;7.080;2022-09-21T00:58:39;10.52;;;5.03;;
27899;SDS011;15243;50.726;7.080;2022-09-21T01:01:11;9.98;;;4.85;;
27899;SDS011;15243;50.726;7.080;2022-09-21T01:03:41;10.20;;;4.53;;
27899;SDS011;15243;50.726;7.080;2022-09-21T01:06:11;12.57;;;6.28;;
27899;SDS011;15243;50.726;7.080;2022-09-21T01:08:39;16.73;;;5.88;;
27899;SDS011;15243;50.726;7.080;2022-09-21T01:14:04;13.57;;;4.95;;
27899;SDS011;15243;50.726;7.080;2022-09-21T01:16:59;10.80;;;4.97;;
27899;SDS011;15243;50.726;7.080;2022-09-21T01:25:32;14.82;;;5.43;;
27899;SDS011;15243;50.726;7.080;2022-09-21T01:30:56;9.40;;;4.40;;
27899;SDS011;15243;50.726;7.080;2022-09-21T01:33:32;11.45;;;5.38;;
27899;SDS011;15243;50.726;7.080;2022-09-21T01:38:39;8.18;;;4.85;;
27899;SDS011;15243;50.726;7.080;2022-09-21T01:43:46;15.18;;;5.65;;
27899;SDS011;15243;50.726;7.080;2022-09-21T01:46:18;15.18;;;6.03;;
27899;SDS011;15243;50.726;7.080;2022-09-21T01:48:49;15.20;;;5.50;;
27899;SDS011;15243;50.726;7.080;2022-09-21T01:51:20;14.87;;;6.03;;
27899;SDS011;15243;50.726;7.080;2022-09-21T01:53:51;12.45;;;4.88;;
27899;SDS011;15243;50.726;7.080;2022-09-21T01:56:32;9.43;;;4.90;;
27899;SDS011;15243;50.726;7.080;2022-09-21T01:59:06;14.30;;;5.60;;
27899;SDS011;15243;50.726;7.080;2022-09-21T02:01:57;10.07;;;4.75;;
27899;SDS011;15243;50.726;7.080;2022-09-21T02:04:27;15.27;;;4.90;;
27899;SDS011;15243;50.726;7.080;2022-09-21T02:06:54;10.95;;;5.40;;
27899;SDS011;15243;50.726;7.080;2022-09-21T02:09:21;8.25;;;4.90;;
27899;SDS011;15243;50.726;7.080;2022-09-21T02:11:49;8.80;;;4.90;;
27899;SDS011;15243;50.726;7.080;2022-09-21T02:14:16;18.92;;;5.25;;
27899;SDS011;15243;50.726;7.080;2022-09-21T02:17:00;16.98;;;5.53;;
27899;SDS011;15243;50.726;7.080;2022-09-21T02:25:10;12.15;;;5.40;;
27899;SDS011;15243;50.726;7.080;2022-09-21T02:27:44;17.38;;;5.82;;
27899;SDS011;15243;50.726;7.080;2022-09-21T02:30:26;12.32;;;5.15;;
27899;SDS011;15243;50.726;7.080;2022-09-21T02:38:21;12.50;;;5.63;;
27899;SDS011;15243;50.726;7.080;2022-09-21T02:43:51;12.60;;;5.65;;
27899;SDS011;15243;50.726;7.080;2022-09-21T02:46:43;12.00;;;5.20;;
27899;SDS011;15243;50.726;7.080;2022-09-21T02:49:26;11.88;;;5.78;;
27899;SDS011;15243;50.726;7.080;2022-09-21T02:51:57;12.82;;;5.30;;
27899;SDS011;15243;50.726;7.080;2022-09-21T02:54:29;9.97;;;4.77;;
27899;SDS011;15243;50.726;7.080;2022-09-21T02:56:58;10.07;;;4.88;;
27899;SDS011;15243;50.726;7.080;2022-09-21T02:59:28;9.95;;;5.55;;
27899;SDS011;15243;50.726;7.080;2022-09-21T03:01:55;12.30;;;4.88;;
27899;SDS011;15243;50.726;7.080;2022-09-21T03:04:22;13.48;;;4.95;;
27899;SDS011;15243;50.726;7.080;2022-09-21T03:06:50;12.75;;;5.45;;
27899;SDS011;15243;50.726;7.080;2022-09-21T03:09:17;11.43;;;5.28;;
27899;SDS011;15243;50.726;7.080;2022-09-21T03:11:43;8.05;;;4.38;;
27899;SDS011;15243;50.726;7.080;2022-09-21T03:14:10;11.02;;;4.65;;
27899;SDS011;15243;50.726;7.080;2022-09-21T03:16:37;9.65;;;4.80;;
27899;SDS011;15243;50.726;7.080;2022-09-21T03:19:04;13.13;;;4.78;;
27899;SDS011;15243;50.726;7.080;2022-09-21T03:21:31;15.57;;;5.57;;
27899;SDS011;15243;50.726;7.080;2022-09-21T03:23:58;12.82;;;5.30;;
27899;SDS011;15243;50.726;7.080;2022-09-21T03:26:25;10.05;;;5.30;;
27899;SDS011;15243;50.726;7.080;2022-09-21T03:28:52;15.30;;;5.00;;
27899;SDS011;15243;50.726;7.080;2022-09-21T03:31:20;16.65;;;5.65;;
27899;SDS011;15243;50.726;7.080;2022-09-21T03:33:47;9.75;;;4.93;;
27899;SDS011;15243;50.726;7.080;2022-09-21T03:36:14;12.02;;;5.57;;
27899;SDS011;15243;50.726;7.080;2022-09-21T03:38:42;13.55;;;5.13;;
27899;SDS011;15243;50.726;7.080;2022-09-21T03:41:09;9.77;;;4.93;;
27899;SDS011;15243;50.726;7.080;2022-09-21T03:43:36;13.18;;;5.65;;
27899;SDS011;15243;50.726;7.080;2022-09-21T03:46:03;15.20;;;5.50;;
27899;SDS011;15243;50.726;7.080;2022-09-21T03:48:30;14.55;;;6.13;;
27899;SDS011;15243;50.726;7.080;2022-09-21T03:50:57;12.13;;;5.43;;
27899;SDS011;15243;50.726;7.080;2022-09-21T03:53:24;12.95;;;5.40;;
27899;SDS011;15243;50.726;7.080;2022-09-21T03:55:51;11.65;;;5.60;;
27899;SDS011;15243;50.726;7.080;2022-09-21T03:58:18;11.63;;;5.43;;
27899;SDS011;15243;50.726;7.080;2022-09-21T04:00:45;13.38;;;5.53;;
27899;SDS011;15243;50.726;7.080;2022-09-21T04:03:12;10.88;;;5.72;;
27899;SDS011;15243;50.726;7.080;2022-09-21T04:05:39;13.02;;;4.97;;
27899;SDS011;15243;50.726;7.080;2022-09-21T04:08:05;10.48;;;5.05;;
27899;SDS011;15243;50.726;7.080;2022-09-21T04:10:33;13.95;;;5.68;;
27899;SDS011;15243;50.726;7.080;2022-09-21T04:13:00;10.32;;;4.97;;
27899;SDS011;15243;50.726;7.080;2022-09-21T04:15:28;8.95;;;5.15;;
27899;SDS011;15243;50.726;7.080;2022-09-21T04:17:55;12.30;;;4.90;;
27899;SDS011;15243;50.726;7.080;2022-09-21T04:20:22;12.98;;;5.03;;
27899;SDS011;15243;50.726;7.080;2022-09-21T04:22:49;11.27;;;5.65;;
27899;SDS011;15243;50.726;7.080;2022-09-21T04:25:18;8.38;;;5.25;;
27899;SDS011;15243;50.726;7.080;2022-09-21T04:27:45;16.27;;;7.28;;
27899;SDS011;15243;50.726;7.080;2022-09-21T04:30:12;12.82;;;6.30;;
27899;SDS011;15243;50.726;7.080;2022-09-21T04:32:41;15.57;;;6.28;;
27899;SDS011;15243;50.726;7.080;2022-09-21T04:35:08;10.07;;;5.70;;
27899;SDS011;15243;50.726;7.080;2022-09-21T04:37:35;13.32;;;5.68;;
27899;SDS011;15243;50.726;7.080;2022-09-21T04:40:03;11.75;;;6.03;;
27899;SDS011;15243;50.726;7.080;2022-09-21T04:42:31;11.95;;;6.38;;
27899;SDS011;15243;50.726;7.080;2022-09-21T04:44:57;16.88;;;6.43;;
27899;SDS011;15243;50.726;7.080;2022-09-21T04:47:25;11.85;;;6.20;;
27899;SDS011;15243;50.726;7.080;2022-09-21T04:49:55;15.18;;;6.07;;
27899;SDS011;15243;50.726;7.080;2022-09-21T04:52:22;13.15;;;5.72;;
27899;SDS011;15243;50.726;7.080;2022-09-21T04:54:49;11.57;;;6.55;;
27899;SDS011;15243;50.726;7.080;2022-09-21T04:57:16;11.18;;;6.20;;
27899;SDS011;15243;50.726;7.080;2022-09-21T04:59:43;13.20;;;5.72;;
27899;SDS011;15243;50.726;7.080;2022-09-21T05:02:09;14.60;;;6.68;;
27899;SDS011;15243;50.726;7.080;2022-09-21T05:04:36;16.15;;;6.30;;
27899;SDS011;15243;50.726;7.080;2022-09-21T05:07:03;12.65;;;5.95;;
27899;SDS011;15243;50.726;7.080;2022-09-21T05:09:30;18.67;;;6.00;;
27899;SDS011;15243;50.726;7.080;2022-09-21T05:12:16;12.05;;;5.40;;
27899;SDS011;15243;50.726;7.080;2022-09-21T05:14:42;11.00;;;5.47;;
27899;SDS011;15243;50.726;7.080;2022-09-21T05:17:10;9.20;;;5.60;;
27899;SDS011;15243;50.726;7.080;2022-09-21T05:19:38;11.27;;;5.78;;
27899;SDS011;15243;50.726;7.080;2022-09-21T05:22:05;9.85;;;5.15;;
27899;SDS011;15243;50.726;7.080;2022-09-21T05:24:32;11.43;;;5.57;;
27899;SDS011;15243;50.726;7.080;2022-09-21T05:26:59;9.52;;;5.70;;
27899;SDS011;15243;50.726;7.080;2022-09-21T05:29:26;13.32;;;5.55;;
27899;SDS011;15243;50.726;7.080;2022-09-21T05:40:26;11.63;;;6.55;;
27899;SDS011;15243;50.726;7.080;2022-09-21T05:42:53;10.88;;;6.00;;
27899;SDS011;15243;50.726;7.080;2022-09-21T05:45:21;16.95;;;6.13;;
27899;SDS011;15243;50.726;7.080;2022-09-21T05:47:52;15.82;;;6.13;;
27899;SDS011;15243;50.726;7.080;2022-09-21T05:59:11;13.10;;;6.05;;
27899;SDS011;15243;50.726;7.080;2022-09-21T06:02:13;10.20;;;5.90;;
27899;SDS011;15243;50.726;7.080;2022-09-21T06:04:58;13.43;;;6.45;;
27899;SDS011;15243;50.726;7.080;2022-09-21T06:07:27;13.18;;;7.28;;
27899;SDS011;15243;50.726;7.080;2022-09-21T06:09:54;14.23;;;7.00;;
27899;SDS011;15243;50.726;7.080;2022-09-21T06:12:21;10.88;;;7.63;;
27899;SDS011;15243;50.726;7.080;2022-09-21T06:14:48;16.23;;;6.97;;
27899;SDS011;15243;50.726;7.080;2022-09-21T06:17:14;15.40;;;8.05;;
27899;SDS011;15243;50.726;7.080;2022-09-21T06:19:41;13.20;;;7.30;;
27899;SDS011;15243;50.726;7.080;2022-09-21T06:22:08;14.50;;;6.90;;
27899;SDS011;15243;50.726;7.080;2022-09-21T06:24:35;13.05;;;7.90;;
27899;SDS011;15243;50.726;7.080;2022-09-21T06:27:02;15.40;;;7.70;;
27899;SDS011;15243;50.726;7.080;2022-09-21T06:29:29;17.70;;;8.90;;
27899;SDS011;15243;50.726;7.080;2022-09-21T06:31:55;18.85;;;8.05;;
27899;SDS011;15243;50.726;7.080;2022-09-21T06:34:25;17.65;;;8.98;;
27899;SDS011;15243;50.726;7.080;2022-09-21T06:36:52;17.77;;;8.63;;
27899;SDS011;15243;50.726;7.080;2022-09-21T06:39:22;15.68;;;9.48;;
27899;SDS011;15243;50.726;7.080;2022-09-21T06:41:49;18.23;;;9.70;;
27899;SDS011;15243;50.726;7.080;2022-09-21T06:44:17;18.55;;;10.13;;
27899;SDS011;15243;50.726;7.080;2022-09-21T06:46:44;17.23;;;9.88;;
27899;SDS011;15243;50.726;7.080;2022-09-21T06:49:11;15.88;;;10.15;;
27899;SDS011;15243;50.726;7.080;2022-09-21T06:51:38;16.15;;;9.90;;
27899;SDS011;15243;50.726;7.080;2022-09-21T06:54:04;18.63;;;11.77;;
27899;SDS011;15243;50.726;7.080;2022-09-21T06:56:31;21.27;;;11.90;;
27899;SDS011;15243;50.726;7.080;2022-09-21T06:58:58;23.92;;;11.23;;
27899;SDS011;15243;50.726;7.080;2022-09-21T07:01:25;20.77;;;11.20;;
27899;SDS011;15243;50.726;7.080;2022-09-21T07:03:53;20.67;;;11.00;;
27899;SDS011;15243;50.726;7.080;2022-09-21T07:06:19;30.65;;;13.85;;
27899;SDS011;15243;50.726;7.080;2022-09-21T07:08:47;28.30;;;13.95;;
27899;SDS011;15243;50.726;7.080;2022-09-21T07:11:37;25.92;;;14.05;;
27899;SDS011;15243;50.726;7.080;2022-09-21T07:14:07;30.02;;;14.02;;
27899;SDS011;15243;50.726;7.080;2022-09-21T07:16:33;23.05;;;12.95;;
27899;SDS011;15243;50.726;7.080;2022-09-21T07:19:01;23.33;;;13.65;;
27899;SDS011;15243;50.726;7.080;2022-09-21T07:21:36;27.08;;;14.85;;
27899;SDS011;15243;50.726;7.080;2022-09-21T07:24:03;23.20;;;15.05;;
27899;SDS011;15243;50.726;7.080;2022-09-21T07:26:36;27.25;;;15.13;;
27899;SDS011;15243;50.726;7.080;2022-09-21T07:29:03;20.25;;;13.27;;
27899;SDS011;15243;50.726;7.080;2022-09-21T07:31:30;26.33;;;13.02;;
27899;SDS011;15243;50.726;7.080;2022-09-21T07:33:57;19.85;;;12.75;;
27899;SDS011;15243;50.726;7.080;2022-09-21T07:36:24;24.45;;;13.05;;
27899;SDS011;15243;50.726;7.080;2022-09-21T07:38:51;20.33;;;12.90;;
27899;SDS011;15243;50.726;7.080;2022-09-21T07:41:19;20.38;;;13.05;;
27899;SDS011;15243;50.726;7.080;2022-09-21T07:43:46;19.20;;;11.63;;
27899;SDS011;15243;50.726;7.080;2022-09-21T07:46:13;21.65;;;11.70;;
27899;SDS011;15243;50.726;7.080;2022-09-21T07:48:40;18.52;;;12.02;;
27899;SDS011;15243;50.726;7.080;2022-09-21T07:51:12;18.85;;;12.70;;
27899;SDS011;15243;50.726;7.080;2022-09-21T07:53:41;21.40;;;13.07;;
27899;SDS011;15243;50.726;7.080;2022-09-21T07:56:15;18.40;;;11.88;;
27899;SDS011;15243;50.726;7.080;2022-09-21T07:58:42;22.77;;;13.80;;
27899;SDS011;15243;50.726;7.080;2022-09-21T08:01:28;25.50;;;14.77;;
27899;SDS011;15243;50.726;7.080;2022-09-21T08:03:56;24.80;;;14.52;;
27899;SDS011;15243;50.726;7.080;2022-09-21T08:06:25;22.13;;;12.93;;
27899;SDS011;15243;50.726;7.080;2022-09-21T08:08:53;22.48;;;12.95;;
27899;SDS011;15243;50.726;7.080;2022-09-21T08:11:23;23.00;;;13.07;;
27899;SDS011;15243;50.726;7.080;2022-09-21T08:13:51;20.88;;;12.23;;
27899;SDS011;15243;50.726;7.080;2022-09-21T08:16:20;22.25;;;13.65;;
27899;SDS011;15243;50.726;7.080;2022-09-21T08:18:47;25.38;;;13.38;;
27899;SDS011;15243;50.726;7.080;2022-09-21T08:21:14;22.33;;;14.10;;
27899;SDS011;15243;50.726;7.080;2022-09-21T08:23:41;26.15;;;14.05;;
27899;SDS011;15243;50.726;7.080;2022-09-21T08:26:12;28.25;;;13.65;;
27899;SDS011;15243;50.726;7.080;2022-09-21T08:28:51;20.20;;;13.73;;
27899;SDS011;15243;50.726;7.080;2022-09-21T08:31:19;22.80;;;13.90;;
27899;SDS011;15243;50.726;7.080;2022-09-21T08:33:47;25.40;;;13.98;;
27899;SDS011;15243;50.726;7.080;2022-09-21T08:36:15;23.70;;;14.00;;
27899;SDS011;15243;50.726;7.080;2022-09-21T08:38:43;22.35;;;14.35;;
27899;SDS011;15243;50.726;7.080;2022-09-21T08:41:17;22.48;;;13.45;;
27899;SDS011;15243;50.726;7.080;2022-09-21T08:43:51;22.50;;;13.77;;
27899;SDS011;15243;50.726;7.080;2022-09-21T08:46:26;19.88;;;13.07;;
27899;SDS011;15243;50.726;7.080;2022-09-21T08:48:55;22.77;;;14.02;;
27899;SDS011;15243;50.726;7.080;2022-09-21T08:51:36;25.42;;;14.15;;
27899;SDS011;15243;50.726;7.080;2022-09-21T08:54:15;23.08;;;15.02;;
27899;SDS011;15243;50.726;7.080;2022-09-21T08:56:48;20.20;;;13.95;;
27899;SDS011;15243;50.726;7.080;2022-09-21T08:59:31;25.92;;;14.43;;
27899;SDS011;15243;50.726;7.080;2022-09-21T09:02:03;20.00;;;13.80;;
27899;SDS011;15243;50.726;7.080;2022-09-21T09:04:56;22.90;;;14.00;;
27899;SDS011;15243;50.726;7.080;2022-09-21T09:10:37;22.45;;;13.80;;
27899;SDS011;15243;50.726;7.080;2022-09-21T09:22:14;18.55;;;11.93;;
27899;SDS011;15243;50.726;7.080;2022-09-21T09:24:48;19.23;;;10.82;;
27899;SDS011;15243;50.726;7.080;2022-09-21T09:27:21;18.70;;;10.93;;
27899;SDS011;15243;50.726;7.080;2022-09-21T09:35:43;14.88;;;9.02;;
27899;SDS011;15243;50.726;7.080;2022-09-21T09:38:17;16.17;;;9.30;;
27899;SDS011;15243;50.726;7.080;2022-09-21T09:47:23;13.88;;;7.40;;
27899;SDS011;15243;50.726;7.080;2022-09-21T09:49:27;12.30;;;7.22;;
27899;SDS011;15243;50.726;7.080;2022-09-21T09:51:57;12.63;;;6.78;;
27899;SDS011;15243;50.726;7.080;2022-09-21T09:54:25;15.68;;;7.00;;
27899;SDS011;15243;50.726;7.080;2022-09-21T09:56:54;13.55;;;6.85;;
27899;SDS011;15243;50.726;7.080;2022-09-21T09:59:29;9.98;;;5.97;;
27899;SDS011;15243;50.726;7.080;2022-09-21T10:02:02;12.77;;;5.90;;
27899;SDS011;15243;50.726;7.080;2022-09-21T10:04:32;11.93;;;5.30;;
27899;SDS011;15243;50.726;7.080;2022-09-21T10:07:02;8.88;;;3.95;;
27899;SDS011;15243;50.726;7.080;2022-09-21T10:09:30;7.85;;;3.92;;
27899;SDS011;15243;50.726;7.080;2022-09-21T10:14:50;8.88;;;3.60;;
27899;SDS011;15243;50.726;7.080;2022-09-21T10:17:18;11.68;;;5.15;;
27899;SDS011;15243;50.726;7.080;2022-09-21T10:19:46;8.98;;;4.40;;
27899;SDS011;15243;50.726;7.080;2022-09-21T10:22:17;7.43;;;2.47;;
27899;SDS011;15243;50.726;7.080;2022-09-21T10:24:45;11.52;;;3.17;;
27899;SDS011;15243;50.726;7.080;2022-09-21T10:27:18;5.93;;;2.78;;
27899;SDS011;15243;50.726;7.080;2022-09-21T10:29:51;11.15;;;3.33;;
27899;SDS011;15243;50.726;7.080;2022-09-21T10:32:20;7.55;;;2.60;;
27899;SDS011;15243;50.726;7.080;2022-09-21T10:34:59;7.63;;;2.22;;
27899;SDS011;15243;50.726;7.080;2022-09-21T10:37:36;5.43;;;1.77;;
27899;SDS011;15243;50.726;7.080;2022-09-21T10:42:43;5.95;;;1.95;;
27899;SDS011;15243;50.726;7.080;2022-09-21T10:45:17;2.97;;;1.40;;
27899;SDS011;15243;50.726;7.080;2022-09-21T10:47:50;7.90;;;1.80;;
27899;SDS011;15243;50.726;7.080;2022-09-21T10:50:38;8.23;;;2.05;;
27899;SDS011;15243;50.726;7.080;2022-09-21T10:53:17;4.40;;;1.30;;
27899;SDS011;15243;50.726;7.080;2022-09-21T11:13:43;3.78;;;1.35;;
27899;SDS011;15243;50.726;7.080;2022-09-21T11:19:53;4.15;;;1.05;;
27899;SDS011;15243;50.726;7.080;2022-09-21T11:22:31;7.15;;;1.98;;
27899;SDS011;15243;50.726;7.080;2022-09-21T11:28:27;5.55;;;1.60;;
27899;SDS011;15243;50.726;7.080;2022-09-21T11:31:25;6.18;;;2.15;;
27899;SDS011;15243;50.726;7.080;2022-09-21T11:57:16;4.63;;;1.90;;
27899;SDS011;15243;50.726;7.080;2022-09-21T12:03:00;6.32;;;2.40;;
27899;SDS011;15243;50.726;7.080;2022-09-21T12:05:57;5.65;;;1.75;;
27899;SDS011;15243;50.726;7.080;2022-09-21T12:08:36;2.92;;;1.33;;
27899;SDS011;15243;50.726;7.080;2022-09-21T12:16:37;4.72;;;1.00;;
27899;SDS011;15243;50.726;7.080;2022-09-21T12:21:59;6.15;;;1.75;;
27899;SDS011;15243;50.726;7.080;2022-09-21T12:29:47;3.45;;;1.20;;
27899;SDS011;15243;50.726;7.080;2022-09-21T12:35:17;6.15;;;1.60;;
27899;SDS011;15243;50.726;7.080;2022-09-21T12:37:50;5.07;;;1.30;;
27899;SDS011;15243;50.726;7.080;2022-09-21T12:45:41;4.10;;;1.27;;
27899;SDS011;15243;50.726;7.080;2022-09-21T12:48:18;2.80;;;1.08;;
27899;SDS011;15243;50.726;7.080;2022-09-21T12:51:02;2.47;;;0.90;;
27899;SDS011;15243;50.726;7.080;2022-09-21T12:53:44;3.35;;;1.10;;
27899;SDS011;15243;50.726;7.080;2022-09-21T13:01:42;4.90;;;1.15;;
27899;SDS011;15243;50.726;7.080;2022-09-21T13:09:39;4.78;;;0.82;;
27899;SDS011;15243;50.726;7.080;2022-09-21T13:12:10;4.22;;;1.02;;
27899;SDS011;15243;50.726;7.080;2022-09-21T13:14:43;1.80;;;0.73;;
27899;SDS011;15243;50.726;7.080;2022-09-21T13:17:19;4.85;;;1.20;;
27899;SDS011;15243;50.726;7.080;2022-09-21T13:19:58;1.73;;;0.73;;
27899;SDS011;15243;50.726;7.080;2022-09-21T13:22:42;5.28;;;0.88;;
27899;SDS011;15243;50.726;7.080;2022-09-21T13:39:51;2.03;;;0.60;;
27899;SDS011;15243;50.726;7.080;2022-09-21T13:45:01;2.70;;;0.73;;
27899;SDS011;15243;50.726;7.080;2022-09-21T13:47:49;3.33;;;0.82;;
27899;SDS011;15243;50.726;7.080;2022-09-21T13:50:27;3.92;;;0.70;;
27899;SDS011;15243;50.726;7.080;2022-09-21T13:53:03;3.60;;;0.85;;
27899;SDS011;15243;50.726;7.080;2022-09-21T13:55:39;3.05;;;0.82;;
27899;SDS011;15243;50.726;7.080;2022-09-21T14:00:51;1.90;;;0.60;;
27899;SDS011;15243;50.726;7.080;2022-09-21T14:03:22;3.72;;;0.90;;
27899;SDS011;15243;50.726;7.080;2022-09-21T14:06:07;2.22;;;0.70;;
27899;SDS011;15243;50.726;7.080;2022-09-21T14:11:20;4.20;;;1.00;;
27899;SDS011;15243;50.726;7.080;2022-09-21T14:14:05;1.63;;;0.63;;
27899;SDS011;15243;50.726;7.080;2022-09-21T14:22:16;1.27;;;0.50;;
27899;SDS011;15243;50.726;7.080;2022-09-21T14:30:03;2.40;;;0.63;;
27899;SDS011;15243;50.726;7.080;2022-09-21T14:32:42;1.67;;;0.60;;
27899;SDS011;15243;50.726;7.080;2022-09-21T14:35:21;3.50;;;0.50;;
27899;SDS011;15243;50.726;7.080;2022-09-21T14:37:54;4.68;;;0.68;;
27899;SDS011;15243;50.726;7.080;2022-09-21T14:40:36;1.42;;;0.75;;
27899;SDS011;15243;50.726;7.080;2022-09-21T14:43:09;1.85;;;0.90;;
27899;SDS011;15243;50.726;7.080;2022-09-21T14:48:46;2.95;;;0.68;;
27899;SDS011;15243;50.726;7.080;2022-09-21T14:51:52;2.55;;;0.68;;
27899;SDS011;15243;50.726;7.080;2022-09-21T15:00:19;4.18;;;0.70;;
27899;SDS011;15243;50.726;7.080;2022-09-21T15:05:57;2.28;;;0.50;;
27899;SDS011;15243;50.726;7.080;2022-09-21T15:12:00;2.05;;;0.40;;
27899;SDS011;15243;50.726;7.080;2022-09-21T15:14:38;2.47;;;0.57;;
27899;SDS011;15243;50.726;7.080;2022-09-21T15:17:22;2.40;;;0.60;;
27899;SDS011;15243;50.726;7.080;2022-09-21T15:19:51;1.77;;;0.47;;
27899;SDS011;15243;50.726;7.080;2022-09-21T15:22:24;2.45;;;0.60;;
27899;SDS011;15243;50.726;7.080;2022-09-21T15:24:56;2.15;;;0.63;;
27899;SDS011;15243;50.726;7.080;2022-09-21T15:27:28;0.82;;;0.60;;
27899;SDS011;15243;50.726;7.080;2022-09-21T15:29:59;0.75;;;0.40;;
27899;SDS011;15243;50.726;7.080;2022-09-21T15:35:00;6.35;;;0.95;;
27899;SDS011;15243;50.726;7.080;2022-09-21T15:37:48;1.10;;;0.22;;
27899;SDS011;15243;50.726;7.080;2022-09-21T15:40:23;2.80;;;0.60;;
27899;SDS011;15243;50.726;7.080;2022-09-21T15:48:06;1.30;;;0.60;;
27899;SDS011;15243;50.726;7.080;2022-09-21T15:50:38;1.65;;;0.30;;
27899;SDS011;15243;50.726;7.080;2022-09-21T15:53:13;5.47;;;1.00;;
27899;SDS011;15243;50.726;7.080;2022-09-21T15:55:47;4.28;;;0.55;;
27899;SDS011;15243;50.726;7.080;2022-09-21T16:01:10;0.75;;;0.40;;
27899;SDS011;15243;50.726;7.080;2022-09-21T16:03:40;2.85;;;0.60;;
27899;SDS011;15243;50.726;7.080;2022-09-21T16:06:24;10.90;;;1.60;;
27899;SDS011;15243;50.726;7.080;2022-09-21T16:08:52;1.85;;;0.52;;
27899;SDS011;15243;50.726;7.080;2022-09-21T16:14:12;2.55;;;0.52;;
27899;SDS011;15243;50.726;7.080;2022-09-21T16:22:40;2.25;;;0.55;;
27899;SDS011;15243;50.726;7.080;2022-09-21T16:25:20;2.10;;;0.50;;
27899;SDS011;15243;50.726;7.080;2022-09-21T16:27:56;3.63;;;0.67;;
27899;SDS011;15243;50.726;7.080;2022-09-21T16:30:42;2.80;;;0.70;;
27899;SDS011;15243;50.726;7.080;2022-09-21T16:36:53;2.15;;;0.70;;
27899;SDS011;15243;50.726;7.080;2022-09-21T16:38:58;1.88;;;0.50;;
27899;SDS011;15243;50.726;7.080;2022-09-21T16:41:30;2.40;;;0.70;;
27899;SDS011;15243;50.726;7.080;2022-09-21T16:44:00;1.42;;;0.68;;
27899;SDS011;15243;50.726;7.080;2022-09-21T16:46:28;3.53;;;0.80;;
27899;SDS011;15243;50.726;7.080;2022-09-21T16:48:57;4.95;;;0.75;;
27899;SDS011;15243;50.726;7.080;2022-09-21T16:51:24;2.67;;;0.80;;
27899;SDS011;15243;50.726;7.080;2022-09-21T16:53:52;4.10;;;0.77;;
27899;SDS011;15243;50.726;7.080;2022-09-21T16:56:20;0.88;;;0.40;;
27899;SDS011;15243;50.726;7.080;2022-09-21T16:58:47;4.55;;;1.40;;
27899;SDS011;15243;50.726;7.080;2022-09-21T17:01:15;5.45;;;0.93;;
27899;SDS011;15243;50.726;7.080;2022-09-21T17:03:46;5.35;;;1.70;;
27899;SDS011;15243;50.726;7.080;2022-09-21T17:06:16;2.65;;;1.30;;
27899;SDS011;15243;50.726;7.080;2022-09-21T17:08:45;3.58;;;0.98;;
27899;SDS011;15243;50.726;7.080;2022-09-21T17:11:13;2.85;;;0.70;;
27899;SDS011;15243;50.726;7.080;2022-09-21T17:13:48;3.67;;;0.90;;
27899;SDS011;15243;50.726;7.080;2022-09-21T17:16:16;3.75;;;1.00;;
27899;SDS011;15243;50.726;7.080;2022-09-21T17:18:50;3.28;;;0.88;;
27899;SDS011;15243;50.726;7.080;2022-09-21T17:21:17;3.72;;;0.93;;
27899;SDS011;15243;50.726;7.080;2022-09-21T17:23:44;3.38;;;1.35;;
27899;SDS011;15243;50.726;7.080;2022-09-21T17:26:16;4.80;;;1.20;;
27899;SDS011;15243;50.726;7.080;2022-09-21T17:28:44;3.80;;;1.00;;
27899;SDS011;15243;50.726;7.080;2022-09-21T17:31:12;1.77;;;0.80;;
27899;SDS011;15243;50.726;7.080;2022-09-21T17:33:42;3.05;;;1.10;;
27899;SDS011;15243;50.726;7.080;2022-09-21T17:36:12;3.17;;;1.17;;
27899;SDS011;15243;50.726;7.080;2022-09-21T17:38:40;3.85;;;1.10;;
27899;SDS011;15243;50.726;7.080;2022-09-21T17:41:15;3.83;;;1.17;;
27899;SDS011;15243;50.726;7.080;2022-09-21T17:48:57;3.75;;;1.25;;
27899;SDS011;15243;50.726;7.080;2022-09-21T17:51:24;5.90;;;1.50;;
27899;SDS011;15243;50.726;7.080;2022-09-21T17:54:09;3.85;;;1.40;;
27899;SDS011;15243;50.726;7.080;2022-09-21T17:56:43;3.10;;;1.48;;
27899;SDS011;15243;50.726;7.080;2022-09-21T17:59:38;5.07;;;1.83;;
27899;SDS011;15243;50.726;7.080;2022-09-21T18:02:16;5.25;;;1.75;;
27899;SDS011;15243;50.726;7.080;2022-09-21T18:04:47;4.10;;;1.60;;
27899;SDS011;15243;50.726;7.080;2022-09-21T18:07:18;7.85;;;1.83;;
27899;SDS011;15243;50.726;7.080;2022-09-21T18:09:45;5.97;;;1.85;;
27899;SDS011;15243;50.726;7.080;2022-09-21T18:18:17;9.77;;;2.15;;
27899;SDS011;15243;50.726;7.080;2022-09-21T18:20:56;4.70;;;1.67;;
27899;SDS011;15243;50.726;7.080;2022-09-21T18:23:42;4.55;;;2.00;;
27899;SDS011;15243;50.726;7.080;2022-09-21T18:26:17;3.08;;;1.60;;
27899;SDS011;15243;50.726;7.080;2022-09-21T18:28:46;5.68;;;1.88;;
27899;SDS011;15243;50.726;7.080;2022-09-21T18:37:06;6.43;;;2.17;;
27899;SDS011;15243;50.726;7.080;2022-09-21T18:39:51;5.30;;;2.92;;
27899;SDS011;15243;50.726;7.080;2022-09-21T18:45:27;5.35;;;2.33;;
27899;SDS011;15243;50.726;7.080;2022-09-21T18:53:50;6.40;;;2.10;;
27899;SDS011;15243;50.726;7.080;2022-09-21T18:56:25;4.78;;;1.95;;
27899;SDS011;15243;50.726;7.080;2022-09-21T18:58:54;10.05;;;2.35;;
27899;SDS011;15243;50.726;7.080;2022-09-21T19:01:23;7.78;;;2.42;;
27899;SDS011;15243;50.726;7.080;2022-09-21T19:04:12;6.97;;;2.85;;
27899;SDS011;15243;50.726;7.080;2022-09-21T19:11:58;6.38;;;2.60;;
27899;SDS011;15243;50.726;7.080;2022-09-21T19:18:15;5.03;;;2.22;;
27899;SDS011;15243;50.726;7.080;2022-09-21T19:20:56;13.20;;;3.17;;
27899;SDS011;15243;50.726;7.080;2022-09-21T19:23:47;7.47;;;3.10;;
27899;SDS011;15243;50.726;7.080;2022-09-21T19:26:37;6.88;;;2.70;;
27899;SDS011;15243;50.726;7.080;2022-09-21T19:32:13;6.32;;;2.80;;
27899;SDS011;15243;50.726;7.080;2022-09-21T19:34:47;8.05;;;3.13;;
27899;SDS011;15243;50.726;7.080;2022-09-21T19:37:16;7.50;;;3.35;;